Terminal Aerodrome Forecast
Issued by NWS Pittsburgh, PA

Home | Current Version | Previous Version | Text Only | Print | Product List | Glossary On
Versions: 1 2 3 4 5 6 7 8 9 10 11 12 13 14 15 16 17 18 19 20 21 22 23 24 25 26 27 28 29
167
FTUS41 KPBZ 270259 AAA
TAFPIT
TAF AMD
KPIT 270259Z 2703/2806 20003KT P6SM SCT150 BKN200
     FM272000 25006KT P6SM VCSH BKN045
     FM280500 19003KT 5SM -SHRA BKN035=

USA.gov is the U.S. government's official web portal to all federal, state and local government web resources and services.